Ingalls, Kansas
Current Conditions -  °F | °C
As of 1:54 AM on Friday 19 Dec 2014 (Local Time) from KGCK Reporting Station
Haze Haze  
Wind Chill: 27°   Ceiling: 1000
Heat Index: 33°   Visibility: 6mi
Dew Point: 31°   Wind: 7mph
Humidity: 92%   Direction: 240°WSW
Pressure: 30.15"   Gusts: NA
Location:  37.83°N, 100.45°W
Report Text: KGCK 190754Z AUTO 24006KT 6SM BR OVC010 01/M01 A3015 RMK AO2 SLP227 T00061006
Loading
Personal Weather Stations






























Interactive Weather Map New forecast layout! Learn more

10-Day Weather Forecast

Advertisements
Track Severe Weather on mobile